Time;durP1;ratioP1;P1;durP2;ratioP2;P2;SDS_P1;SDS_P2;PMS_P1;PMS_P2;Temp;Humidity;BMP_temperature;BMP_pressure;BME280_temperature;BME280_humidity;BME280_pressure;Samples;Min_cycle;Max_cycle;Signal;HPM_P1;HPM_P2
2024/01/25 00:00:46;;;;;;;29.45;4.15;;;7.70;99.90;;;;;;5032105;28;20930;-84
2024/01/25 00:03:12;;;;;;;22.77;3.40;;;7.60;99.90;;;;;;5034345;28;20043;-88
2024/01/25 00:05:39;;;;;;;21.60;3.40;;;7.50;99.90;;;;;;5020193;28;20032;-87
2024/01/25 00:08:05;;;;;;;28.92;4.85;;;7.50;99.90;;;;;;5029095;28;20036;-82
2024/01/25 00:10:32;;;;;;;23.30;4.00;;;7.30;99.90;;;;;;5030322;28;20044;-84
2024/01/25 00:12:58;;;;;;;18.92;3.22;;;7.20;99.90;;;;;;5023315;28;20045;-87
2024/01/25 00:15:24;;;;;;;26.15;4.53;;;7.20;99.90;;;;;;5002707;28;20060;-91
2024/01/25 00:17:51;;;;;;;26.52;3.97;;;7.10;99.90;;;;;;5039197;28;20433;-85
2024/01/25 00:20:17;;;;;;;16.63;2.47;;;7.00;99.90;;;;;;5001158;28;20056;-82
2024/01/25 00:22:43;;;;;;;24.13;3.70;;;7.00;99.90;;;;;;5020677;28;20033;-85
2024/01/25 00:25:10;;;;;;;25.88;4.50;;;7.00;99.90;;;;;;5019963;28;20048;-89
2024/01/25 00:27:37;;;;;;;16.92;2.95;;;6.90;99.90;;;;;;5038480;28;20044;-89
2024/01/25 00:30:04;;;;;;;18.50;2.60;;;6.90;99.90;;;;;;5039557;28;20029;-87
2024/01/25 00:32:31;;;;;;;19.20;3.38;;;6.80;99.90;;;;;;5037072;28;20044;-86
2024/01/25 00:34:58;;;;;;;22.92;4.35;;;6.80;99.90;;;;;;5038181;28;20049;-85
2024/01/25 00:37:24;;;;;;;26.40;3.60;;;6.70;99.90;;;;;;5038601;28;20035;-90
2024/01/25 00:39:51;;;;;;;16.45;2.90;;;6.70;99.90;;;;;;5022198;28;20028;-86
2024/01/25 00:42:22;;;;;;;18.98;3.83;;;6.70;99.90;;;;;;5038916;28;20048;-85
2024/01/25 00:44:49;;;;;;;20.17;3.00;;;6.70;99.90;;;;;;5022742;28;20029;-88
2024/01/25 00:47:16;;;;;;;12.40;1.80;;;6.60;99.90;;;;;;5038125;28;20396;-87
2024/01/25 00:49:43;;;;;;;18.73;2.42;;;6.50;99.90;;;;;;5037166;28;20518;-88
2024/01/25 00:52:10;;;;;;;19.58;2.63;;;6.50;99.90;;;;;;5019923;28;20049;-82
2024/01/25 00:54:36;;;;;;;22.77;2.97;;;6.50;99.90;;;;;;5033800;28;20048;-92
2024/01/25 00:57:04;;;;;;;14.85;2.67;;;6.40;99.90;;;;;;4996052;28;20172;-85
2024/01/25 00:59:31;;;;;;;19.90;3.00;;;6.40;99.90;;;;;;5021828;28;20044;-78
2024/01/25 01:01:59;;;;;;;13.13;2.30;;;6.40;99.90;;;;;;5036174;28;20041;-91
2024/01/25 01:04:26;;;;;;;26.67;3.20;;;6.40;99.90;;;;;;5036304;28;20033;-89
2024/01/25 01:06:53;;;;;;;17.55;3.03;;;6.30;99.90;;;;;;5020242;28;20029;-87
2024/01/25 01:09:19;;;;;;;20.63;2.30;;;6.30;99.90;;;;;;5019810;28;20032;-90
2024/01/25 01:11:46;;;;;;;21.15;2.53;;;6.20;99.90;;;;;;5037037;28;20032;-88
2024/01/25 01:14:12;;;;;;;23.08;3.38;;;6.20;99.90;;;;;;5034311;28;20032;-88
2024/01/25 01:16:39;;;;;;;25.02;3.40;;;6.20;99.90;;;;;;5054607;28;20053;-90
2024/01/25 01:19:06;;;;;;;18.80;2.50;;;6.20;99.90;;;;;;5005325;28;20040;-84
2024/01/25 01:21:36;;;;;;;17.30;2.50;;;6.10;99.90;;;;;;5018699;28;20045;-85
2024/01/25 01:24:02;;;;;;;16.67;2.20;;;6.10;99.90;;;;;;5013201;28;20045;-82
2024/01/25 01:26:29;;;;;;;18.92;3.17;;;6.00;99.90;;;;;;5005984;28;20040;-92
2024/01/25 01:28:55;;;;;;;15.35;2.35;;;6.00;99.90;;;;;;5036337;28;20028;-92
2024/01/25 01:31:22;;;;;;;12.32;1.38;;;6.00;99.90;;;;;;5022985;28;20040;-85
2024/01/25 01:33:48;;;;;;;17.27;2.40;;;5.90;99.90;;;;;;5018786;28;20689;-90
2024/01/25 01:36:14;;;;;;;17.15;2.00;;;5.80;99.90;;;;;;5032239;28;20499;-88
2024/01/25 01:38:41;;;;;;;16.40;1.70;;;5.80;99.90;;;;;;5035877;28;20036;-93
2024/01/25 01:41:10;;;;;;;22.77;2.75;;;5.70;99.90;;;;;;5035351;28;20029;-87
2024/01/25 01:43:36;;;;;;;17.63;2.35;;;5.70;99.90;;;;;;5016103;28;20041;-86
2024/01/25 01:46:16;;;;;;;12.82;1.92;;;5.60;99.90;;;;;;5034311;28;20804;-85
2024/01/25 01:48:42;;;;;;;14.63;2.10;;;5.60;99.90;;;;;;5018708;28;20049;-84
2024/01/25 01:51:09;;;;;;;12.65;1.27;;;5.60;99.90;;;;;;5018793;28;20047;-88
2024/01/25 01:53:36;;;;;;;10.50;1.33;;;5.50;99.90;;;;;;5035583;28;20495;-88
2024/01/25 01:56:03;;;;;;;10.88;1.40;;;5.40;99.90;;;;;;5031138;28;20046;-78
2024/01/25 01:58:31;;;;;;;13.15;1.60;;;5.40;99.90;;;;;;5034351;28;22741;-86
2024/01/25 02:00:59;;;;;;;11.90;1.83;;;5.30;99.90;;;;;;5015836;28;20040;-87
2024/01/25 02:03:26;;;;;;;12.43;2.30;;;5.30;99.90;;;;;;5016782;28;20048;-88
2024/01/25 02:05:53;;;;;;;18.20;2.28;;;5.20;99.90;;;;;;5048726;28;20215;-85
2024/01/25 02:08:19;;;;;;;16.00;1.73;;;5.20;99.90;;;;;;5030533;28;20518;-82
2024/01/25 02:10:46;;;;;;;11.95;1.67;;;5.20;99.90;;;;;;5014023;28;20037;-86
2024/01/25 02:13:12;;;;;;;13.65;1.33;;;5.10;99.90;;;;;;5050170;28;20041;-93
2024/01/25 02:15:38;;;;;;;14.63;2.40;;;5.10;99.90;;;;;;5006181;28;20063;-86
2024/01/25 02:18:05;;;;;;;14.93;1.95;;;5.10;99.90;;;;;;5041554;28;20047;-90
2024/01/25 02:20:32;;;;;;;16.25;1.80;;;5.00;99.90;;;;;;5040774;28;20494;-79
2024/01/25 02:22:59;;;;;;;13.98;2.17;;;5.00;99.90;;;;;;5041954;28;20558;-87
2024/01/25 02:25:25;;;;;;;17.98;2.50;;;5.00;99.90;;;;;;5021478;28;20249;-93
2024/01/25 02:27:51;;;;;;;10.40;1.25;;;4.90;99.90;;;;;;5070844;28;20491;-84
2024/01/25 02:30:18;;;;;;;11.35;1.00;;;4.90;99.90;;;;;;5024242;28;20040;-90
2024/01/25 02:32:44;;;;;;;14.77;2.03;;;4.90;99.90;;;;;;5038946;28;20056;-77
2024/01/25 02:35:10;;;;;;;15.73;2.95;;;4.80;99.90;;;;;;5054293;28;20403;-88
2024/01/25 02:37:37;;;;;;;13.52;2.47;;;4.80;99.90;;;;;;5022229;28;20048;-86
2024/01/25 02:40:04;;;;;;;15.40;1.15;;;4.80;99.90;;;;;;5040548;28;20044;-85
2024/01/25 02:42:30;;;;;;;12.88;1.50;;;4.70;99.90;;;;;;5021574;28;20040;-79
2024/01/25 02:44:57;;;;;;;14.32;1.90;;;4.80;99.90;;;;;;5038735;28;20400;-83
2024/01/25 02:47:23;;;;;;;19.05;2.63;;;4.70;99.90;;;;;;5037102;28;20055;-82
2024/01/25 02:49:49;;;;;;;12.00;2.10;;;4.70;99.90;;;;;;5019772;28;20071;-88
2024/01/25 02:52:16;;;;;;;15.82;2.20;;;4.70;99.90;;;;;;4999703;28;20037;-87
2024/01/25 02:54:42;;;;;;;13.45;1.70;;;4.60;99.90;;;;;;5002323;28;20037;-81
2024/01/25 02:57:08;;;;;;;11.05;1.83;;;4.60;99.90;;;;;;5037187;28;20032;-88
2024/01/25 02:59:35;;;;;;;12.88;1.58;;;4.60;99.90;;;;;;5033754;28;20049;-86
2024/01/25 03:02:01;;;;;;;11.40;1.60;;;4.50;99.90;;;;;;5036394;28;20029;-86
2024/01/25 03:04:27;;;;;;;14.68;1.90;;;4.50;99.90;;;;;;5019128;28;20396;-85
2024/01/25 03:06:54;;;;;;;13.65;1.77;;;4.40;99.90;;;;;;5034286;28;20135;-78
2024/01/25 03:09:21;;;;;;;11.63;1.50;;;4.40;99.90;;;;;;5020121;28;20033;-87
2024/01/25 03:11:47;;;;;;;14.80;1.55;;;4.40;99.90;;;;;;5015325;28;20040;-87
2024/01/25 03:14:13;;;;;;;9.05;1.48;;;4.30;99.90;;;;;;5018306;28;20068;-86
2024/01/25 03:16:40;;;;;;;14.20;2.13;;;4.30;99.90;;;;;;5033985;28;20032;-86
2024/01/25 03:19:06;;;;;;;14.43;1.75;;;4.20;99.90;;;;;;5000819;28;20041;-83
2024/01/25 03:21:32;;;;;;;13.52;1.60;;;4.20;99.90;;;;;;5034037;28;20033;-88
2024/01/25 03:23:59;;;;;;;13.57;2.00;;;4.20;99.90;;;;;;5034004;28;20029;-88
2024/01/25 03:26:27;;;;;;;18.25;1.50;;;4.10;99.90;;;;;;5034475;28;20361;-86
2024/01/25 03:28:54;;;;;;;18.73;2.55;;;4.10;99.90;;;;;;4997749;28;20045;-84
2024/01/25 03:31:20;;;;;;;15.32;2.65;;;4.10;99.90;;;;;;5006315;28;20049;-88
2024/01/25 03:33:46;;;;;;;19.25;1.98;;;4.10;99.90;;;;;;5021616;28;20491;-87
2024/01/25 03:36:16;;;;;;;18.65;2.75;;;4.10;99.90;;;;;;5037574;28;20033;-84
2024/01/25 03:38:43;;;;;;;20.20;2.72;;;4.10;99.90;;;;;;5016621;28;20040;-82
2024/01/25 03:41:09;;;;;;;20.33;2.47;;;4.10;99.90;;;;;;5021282;28;20030;-86
2024/01/25 03:43:36;;;;;;;18.42;1.85;;;4.10;99.90;;;;;;5018542;28;20049;-91
2024/01/25 03:46:05;;;;;;;22.80;2.53;;;4.10;99.90;;;;;;5015620;28;20037;-87
2024/01/25 03:48:31;;;;;;;15.30;2.67;;;4.10;99.90;;;;;;5040219;28;20043;-78
2024/01/25 03:50:58;;;;;;;15.98;2.83;;;4.10;99.90;;;;;;5032764;28;20033;-89
2024/01/25 03:53:24;;;;;;;26.65;3.28;;;4.10;99.90;;;;;;5018740;28;20045;-91
2024/01/25 03:55:50;;;;;;;17.98;2.33;;;4.10;99.90;;;;;;5020847;28;20045;-90
2024/01/25 03:58:20;;;;;;;18.17;2.53;;;4.10;99.90;;;;;;5037654;28;20464;-88
2024/01/25 04:00:47;;;;;;;17.52;2.30;;;4.20;99.90;;;;;;5019603;28;20025;-89
2024/01/25 04:03:14;;;;;;;18.23;3.03;;;4.20;99.90;;;;;;5015521;28;20272;-92
2024/01/25 04:05:40;;;;;;;21.10;3.63;;;4.20;99.90;;;;;;5038328;28;20043;-90
2024/01/25 04:08:07;;;;;;;20.23;2.78;;;4.20;99.90;;;;;;5017080;28;20444;-82
2024/01/25 04:10:33;;;;;;;17.40;2.38;;;4.20;99.90;;;;;;5020678;28;20044;-83
2024/01/25 04:13:00;;;;;;;17.70;2.45;;;4.20;99.90;;;;;;5037505;28;20048;-89
2024/01/25 04:15:27;;;;;;;21.25;3.08;;;4.20;99.90;;;;;;5039371;28;20043;-79
2024/01/25 04:17:53;;;;;;;18.13;2.53;;;4.20;99.90;;;;;;5048870;28;20037;-84
2024/01/25 04:20:19;;;;;;;15.82;2.22;;;4.20;99.90;;;;;;5030722;28;20037;-86
2024/01/25 04:22:46;;;;;;;20.55;2.20;;;4.20;99.90;;;;;;5019829;28;20037;-86
2024/01/25 04:25:12;;;;;;;13.15;2.33;;;4.20;99.90;;;;;;5034982;28;20036;-79
2024/01/25 04:27:39;;;;;;;24.20;2.85;;;4.20;99.90;;;;;;5016984;28;20372;-89
2024/01/25 04:30:09;;;;;;;20.58;2.50;;;4.20;99.90;;;;;;5031684;28;20048;-85
2024/01/25 04:32:36;;;;;;;15.32;2.42;;;4.20;99.90;;;;;;5028438;28;20052;-83
2024/01/25 04:35:02;;;;;;;21.67;3.10;;;4.20;99.90;;;;;;5024990;28;20400;-83
2024/01/25 04:37:29;;;;;;;24.77;2.43;;;4.20;99.90;;;;;;5013929;28;20051;-81
2024/01/25 04:39:55;;;;;;;18.42;2.15;;;4.20;99.90;;;;;;5017354;28;20515;-86
2024/01/25 04:42:21;;;;;;;15.40;2.15;;;4.10;99.90;;;;;;5012879;28;20443;-82
2024/01/25 04:44:48;;;;;;;15.15;1.75;;;4.10;99.90;;;;;;5017633;28;20047;-91
2024/01/25 04:47:14;;;;;;;15.13;2.30;;;4.10;99.90;;;;;;5023043;28;20041;-90
2024/01/25 04:49:41;;;;;;;15.15;1.83;;;4.00;99.90;;;;;;5018544;28;20412;-88
2024/01/25 04:52:07;;;;;;;16.65;1.90;;;4.00;99.90;;;;;;5017459;28;20041;-77
2024/01/25 04:54:33;;;;;;;10.02;1.73;;;3.90;99.90;;;;;;5017990;28;20047;-86
2024/01/25 04:57:00;;;;;;;11.80;2.05;;;3.90;99.90;;;;;;5015022;28;20351;-88
2024/01/25 04:59:26;;;;;;;14.90;2.05;;;3.80;99.90;;;;;;4999567;28;20680;-87
2024/01/25 05:01:55;;;;;;;18.13;2.75;;;3.80;99.90;;;;;;5017041;28;20037;-88
2024/01/25 05:04:21;;;;;;;16.15;1.80;;;3.70;99.90;;;;;;5000084;28;20036;-90
2024/01/25 05:06:47;;;;;;;13.38;1.80;;;3.70;99.90;;;;;;5031356;28;20044;-86
2024/01/25 05:09:14;;;;;;;17.42;2.20;;;3.60;99.90;;;;;;5035016;28;20028;-87
2024/01/25 05:11:41;;;;;;;17.38;2.28;;;3.60;99.90;;;;;;5018401;28;20132;-82
2024/01/25 05:14:07;;;;;;;9.68;1.73;;;3.50;99.90;;;;;;5003345;28;20876;-84
2024/01/25 05:16:35;;;;;;;18.63;2.20;;;3.50;99.90;;;;;;5029770;28;20037;-83
2024/01/25 05:19:01;;;;;;;10.95;2.00;;;3.50;99.90;;;;;;5016342;28;20122;-86
2024/01/25 05:21:27;;;;;;;14.43;1.42;;;3.50;99.90;;;;;;5035736;28;20031;-87
2024/01/25 05:23:54;;;;;;;13.00;1.43;;;3.50;99.90;;;;;;5014435;28;20041;-91
2024/01/25 05:26:20;;;;;;;17.33;1.80;;;3.40;99.90;;;;;;5030949;28;20055;-88
2024/01/25 05:28:47;;;;;;;11.27;1.92;;;3.40;99.90;;;;;;5026531;28;20033;-84
2024/01/25 05:31:13;;;;;;;10.18;1.58;;;3.40;99.90;;;;;;5017870;28;20036;-80
2024/01/25 05:33:40;;;;;;;12.15;1.60;;;3.40;99.90;;;;;;5033892;28;20032;-86
2024/01/25 05:36:07;;;;;;;16.13;2.00;;;3.40;99.90;;;;;;5038259;28;20043;-88
2024/01/25 05:38:33;;;;;;;10.70;1.55;;;3.30;99.90;;;;;;5032944;28;20029;-84
2024/01/25 05:41:00;;;;;;;8.90;1.65;;;3.30;99.90;;;;;;5033842;28;20051;-77
2024/01/25 05:43:26;;;;;;;15.10;1.90;;;3.30;99.90;;;;;;5037492;28;20378;-91
2024/01/25 05:45:52;;;;;;;18.17;2.43;;;3.30;99.90;;;;;;5036219;28;20045;-90
2024/01/25 05:48:19;;;;;;;11.60;1.83;;;3.30;99.90;;;;;;5032996;28;20052;-83
2024/01/25 05:50:45;;;;;;;15.50;1.93;;;3.30;99.90;;;;;;5033572;28;20047;-88
2024/01/25 05:53:11;;;;;;;11.63;1.63;;;3.20;99.90;;;;;;5038032;28;20040;-89
2024/01/25 05:55:38;;;;;;;13.13;2.20;;;3.20;99.90;;;;;;5032810;28;20032;-89
2024/01/25 05:58:04;;;;;;;14.30;1.77;;;3.20;99.90;;;;;;5026578;28;20033;-89
2024/01/25 06:00:30;;;;;;;10.20;1.00;;;3.10;99.90;;;;;;4998089;28;20044;-80
2024/01/25 06:02:56;;;;;;;7.70;1.85;;;3.10;99.90;;;;;;5033195;28;20426;-88
2024/01/25 06:05:23;;;;;;;11.63;2.22;;;3.00;99.90;;;;;;5036291;28;20041;-89
2024/01/25 06:07:50;;;;;;;16.83;2.27;;;3.00;99.90;;;;;;5034887;28;20087;-86
2024/01/25 06:10:16;;;;;;;8.18;1.80;;;3.00;99.90;;;;;;5016099;28;20036;-82
2024/01/25 06:12:42;;;;;;;17.10;2.40;;;2.90;99.90;;;;;;5041409;28;20028;-86
2024/01/25 06:15:09;;;;;;;14.60;2.00;;;2.80;99.90;;;;;;5040553;28;20041;-90
2024/01/25 06:17:36;;;;;;;12.97;1.67;;;2.80;99.90;;;;;;5038429;28;20052;-92
2024/01/25 06:20:02;;;;;;;11.27;1.85;;;2.80;99.90;;;;;;5056096;28;20047;-85
2024/01/25 06:22:28;;;;;;;16.13;1.97;;;2.80;99.90;;;;;;5035521;28;20037;-87
2024/01/25 06:24:55;;;;;;;11.60;1.98;;;2.70;99.90;;;;;;5036201;28;20479;-87
2024/01/25 06:27:21;;;;;;;12.03;2.20;;;2.80;99.90;;;;;;5034744;28;20059;-87
2024/01/25 06:29:47;;;;;;;14.90;2.20;;;2.80;99.90;;;;;;5035162;28;20029;-89
2024/01/25 06:32:14;;;;;;;14.97;1.77;;;2.80;99.90;;;;;;5031536;28;20059;-84
2024/01/25 06:34:40;;;;;;;18.48;2.78;;;2.80;99.90;;;;;;5034046;28;20250;-88
2024/01/25 06:37:06;;;;;;;13.83;2.63;;;2.80;99.90;;;;;;5019755;28;20032;-82
2024/01/25 06:39:34;;;;;;;9.95;1.63;;;2.80;99.90;;;;;;5033516;28;20040;-86
2024/01/25 06:42:00;;;;;;;12.27;1.85;;;2.80;99.90;;;;;;5003859;28;20037;-88
2024/01/25 06:44:28;;;;;;;12.13;2.50;;;2.80;99.90;;;;;;5036149;28;20040;-88
2024/01/25 06:46:54;;;;;;;20.08;2.85;;;2.80;99.90;;;;;;5023272;28;20045;-85
2024/01/25 06:49:21;;;;;;;20.80;2.73;;;2.80;99.90;;;;;;5021864;28;21138;-81
2024/01/25 06:51:47;;;;;;;14.83;2.60;;;2.80;99.90;;;;;;5018488;28;20116;-88
2024/01/25 06:54:14;;;;;;;17.07;2.20;;;2.80;99.90;;;;;;5046294;28;20041;-87
2024/01/25 06:56:40;;;;;;;10.80;1.92;;;2.80;99.90;;;;;;5005845;28;20029;-88
2024/01/25 06:59:06;;;;;;;13.97;2.60;;;2.80;99.90;;;;;;5024187;28;20045;-82
2024/01/25 07:01:33;;;;;;;15.13;2.23;;;2.80;99.90;;;;;;5020916;28;20029;-87
2024/01/25 07:03:59;;;;;;;15.27;2.93;;;2.80;99.90;;;;;;5035251;28;20029;-92
2024/01/25 07:06:26;;;;;;;14.63;2.50;;;2.80;99.90;;;;;;5016659;28;20040;-88
2024/01/25 07:08:53;;;;;;;15.17;2.20;;;2.80;99.90;;;;;;5012934;28;20396;-84
2024/01/25 07:11:19;;;;;;;14.68;3.15;;;2.90;99.90;;;;;;5022032;28;20195;-85
2024/01/25 07:13:46;;;;;;;19.13;2.47;;;2.90;99.90;;;;;;5038398;28;20523;-86
2024/01/25 07:16:12;;;;;;;17.15;2.50;;;2.90;99.90;;;;;;5040969;28;20329;-94
2024/01/25 07:18:39;;;;;;;15.60;2.75;;;2.90;99.90;;;;;;5013917;28;20056;-82
2024/01/25 07:21:05;;;;;;;16.63;3.10;;;2.90;99.90;;;;;;5010956;28;20207;-83
2024/01/25 07:23:33;;;;;;;13.03;2.63;;;2.90;99.90;;;;;;5034786;28;20060;-86
2024/01/25 07:26:00;;;;;;;15.90;2.20;;;3.00;99.90;;;;;;5084161;28;20040;-86
2024/01/25 07:28:26;;;;;;;20.90;3.03;;;3.00;99.90;;;;;;5029847;28;20033;-87
2024/01/25 07:30:52;;;;;;;13.80;2.97;;;3.00;99.90;;;;;;5022127;28;20634;-80
2024/01/25 07:33:19;;;;;;;13.68;2.40;;;3.10;99.90;;;;;;5040552;28;20044;-80
2024/01/25 07:35:45;;;;;;;14.52;2.58;;;3.10;99.90;;;;;;5010383;28;20044;-92
2024/01/25 07:38:12;;;;;;;16.27;2.60;;;3.10;99.90;;;;;;5019889;28;20029;-89
2024/01/25 07:40:39;;;;;;;11.13;2.63;;;3.10;99.90;;;;;;5037555;28;20482;-90
2024/01/25 07:43:05;;;;;;;12.10;2.38;;;3.10;99.90;;;;;;5034699;28;20040;-90
2024/01/25 07:45:32;;;;;;;13.70;1.90;;;3.10;99.90;;;;;;5032894;28;20048;-89
2024/01/25 07:47:59;;;;;;;14.57;2.00;;;3.10;99.90;;;;;;5017754;28;20103;-86
2024/01/25 07:50:25;;;;;;;17.50;3.35;;;3.20;99.90;;;;;;5035139;28;20032;-90
2024/01/25 07:52:54;;;;;;;14.37;2.83;;;3.20;99.90;;;;;;5070269;28;20048;-85
2024/01/25 07:55:21;;;;;;;13.30;3.17;;;3.20;99.90;;;;;;5035822;28;20041;-78
2024/01/25 07:57:47;;;;;;;14.15;3.22;;;3.20;99.90;;;;;;5022271;28;20044;-88
2024/01/25 08:00:14;;;;;;;12.23;2.47;;;3.30;99.90;;;;;;5062277;28;20033;-87
2024/01/25 08:02:41;;;;;;;12.63;2.72;;;3.30;99.90;;;;;;5051638;28;20040;-90
2024/01/25 08:05:08;;;;;;;14.68;3.40;;;3.40;99.90;;;;;;5048277;28;20663;-83
2024/01/25 08:07:36;;;;;;;17.67;3.33;;;3.40;99.90;;;;;;5045244;28;20033;-92
2024/01/25 08:10:04;;;;;;;15.87;3.43;;;3.40;99.90;;;;;;5063156;28;20476;-89
2024/01/25 08:12:31;;;;;;;12.95;3.22;;;3.40;99.90;;;;;;5031404;28;20044;-86
2024/01/25 08:14:57;;;;;;;13.52;2.53;;;3.50;99.90;;;;;;5016147;28;20037;-84
2024/01/25 08:17:24;;;;;;;14.38;2.72;;;3.50;99.90;;;;;;5048977;28;20040;-78
2024/01/25 08:19:50;;;;;;;14.77;2.72;;;3.50;99.90;;;;;;5050028;28;20037;-89
2024/01/25 08:22:16;;;;;;;14.73;2.65;;;3.50;99.90;;;;;;5061961;28;20033;-85
2024/01/25 08:24:43;;;;;;;16.27;3.53;;;3.50;99.90;;;;;;5047176;28;20040;-86
2024/01/25 08:27:10;;;;;;;18.75;3.88;;;3.60;99.90;;;;;;5045922;28;20029;-77
2024/01/25 08:29:37;;;;;;;15.50;3.43;;;3.60;99.90;;;;;;5045808;28;20041;-85
2024/01/25 08:32:03;;;;;;;17.70;3.45;;;3.60;99.90;;;;;;5049392;28;20029;-92
2024/01/25 08:34:30;;;;;;;17.90;5.28;;;3.60;99.90;;;;;;5027893;28;20033;-89
2024/01/25 08:36:56;;;;;;;20.20;4.15;;;3.70;99.90;;;;;;5026781;28;20033;-92
2024/01/25 08:39:23;;;;;;;15.02;4.07;;;3.70;99.90;;;;;;5042128;28;20040;-82
2024/01/25 08:41:50;;;;;;;14.60;3.95;;;3.80;99.90;;;;;;5041332;28;20044;-82
2024/01/25 08:44:16;;;;;;;16.95;3.22;;;3.80;99.90;;;;;;5022314;28;20029;-88
2024/01/25 08:46:43;;;;;;;16.00;3.58;;;3.80;99.90;;;;;;5040991;28;20034;-88
2024/01/25 08:49:12;;;;;;;17.40;3.53;;;3.90;99.90;;;;;;5044124;28;20149;-82
2024/01/25 08:51:38;;;;;;;14.55;2.83;;;3.90;99.90;;;;;;5027701;28;20047;-89
2024/01/25 08:54:05;;;;;;;17.27;3.97;;;4.00;99.90;;;;;;5042195;28;20037;-85
2024/01/25 08:56:31;;;;;;;14.82;3.08;;;4.00;99.90;;;;;;5036990;28;20068;-92
2024/01/25 08:59:00;;;;;;;16.40;3.40;;;4.10;99.90;;;;;;5011831;28;20032;-92
2024/01/25 09:01:26;;;;;;;16.17;3.75;;;4.20;99.90;;;;;;5059969;28;20029;-84
2024/01/25 09:03:53;;;;;;;17.23;4.13;;;4.30;99.90;;;;;;5038675;28;20115;-88
2024/01/25 09:06:19;;;;;;;21.58;6.32;;;4.40;99.90;;;;;;5042423;28;20036;-89
2024/01/25 09:08:45;;;;;;;24.98;8.50;;;4.50;99.90;;;;;;5042037;28;20033;-89
2024/01/25 09:11:12;;;;;;;30.60;8.48;;;4.60;99.90;;;;;;5038983;28;20025;-89
2024/01/25 09:13:44;;;;;;;18.90;5.90;;;4.70;99.90;;;;;;5004229;28;20391;-87
2024/01/25 09:16:10;;;;;;;25.52;6.65;;;4.80;99.90;;;;;;5038262;28;20055;-89
2024/01/25 09:18:36;;;;;;;19.25;5.43;;;4.90;99.90;;;;;;5022655;28;20053;-85
2024/01/25 09:21:03;;;;;;;20.55;4.95;;;5.00;99.90;;;;;;5041816;28;20028;-90
2024/01/25 09:23:29;;;;;;;20.33;5.03;;;5.10;99.90;;;;;;5025023;28;20527;-93
2024/01/25 09:25:56;;;;;;;13.98;3.30;;;5.10;99.90;;;;;;5038936;28;20033;-77
2024/01/25 09:28:22;;;;;;;20.65;4.45;;;5.20;99.90;;;;;;5019091;28;20044;-88
2024/01/25 09:30:48;;;;;;;19.75;4.13;;;5.30;99.90;;;;;;5021964;28;20494;-90
2024/01/25 09:33:15;;;;;;;22.50;4.60;;;5.40;99.90;;;;;;5020659;28;20037;-88
2024/01/25 09:35:41;;;;;;;18.95;5.38;;;5.40;99.90;;;;;;5038383;28;20045;-95
2024/01/25 09:38:08;;;;;;;21.80;6.28;;;5.50;99.90;;;;;;5023800;28;20495;-79
2024/01/25 09:40:35;;;;;;;21.85;6.72;;;5.60;99.90;;;;;;5035487;28;20048;-90
2024/01/25 09:43:02;;;;;;;21.45;6.07;;;5.60;99.90;;;;;;5005711;28;20025;-93
2024/01/25 09:45:31;;;;;;;22.52;4.78;;;5.70;99.90;;;;;;5021381;28;20032;-84
2024/01/25 09:47:57;;;;;;;22.13;5.78;;;5.80;99.90;;;;;;5031103;28;20029;-82
2024/01/25 09:50:24;;;;;;;22.17;5.07;;;5.90;99.90;;;;;;5029416;28;20029;-85
2024/01/25 09:52:56;;;;;;;33.08;6.97;;;6.00;99.90;;;;;;5043508;28;20043;-84
2024/01/25 09:55:25;;;;;;;32.75;7.57;;;6.00;99.90;;;;;;5039769;28;20032;-86
2024/01/25 09:57:55;;;;;;;32.35;7.18;;;6.10;99.90;;;;;;5031601;28;20036;-91
2024/01/25 10:00:22;;;;;;;31.00;5.90;;;6.10;99.90;;;;;;5029259;28;20033;-90
2024/01/25 10:02:49;;;;;;;27.55;6.20;;;6.20;99.90;;;;;;5027067;28;20030;-78
2024/01/25 10:05:16;;;;;;;25.75;7.35;;;6.20;99.90;;;;;;5050852;28;20040;-83
2024/01/25 10:07:45;;;;;;;21.60;6.13;;;6.30;99.90;;;;;;5012762;28;20499;-86
2024/01/25 10:10:13;;;;;;;22.80;5.95;;;6.40;99.90;;;;;;5048723;28;20034;-79
2024/01/25 10:12:43;;;;;;;19.95;5.38;;;6.60;99.90;;;;;;5026543;28;20040;-82
2024/01/25 10:15:10;;;;;;;29.02;5.90;;;6.60;99.90;;;;;;5046135;28;20032;-90
2024/01/25 10:17:36;;;;;;;22.10;6.10;;;6.70;99.90;;;;;;5068586;28;20041;-85
2024/01/25 10:20:07;;;;;;;20.88;4.68;;;6.80;99.90;;;;;;5037088;28;20033;-78
2024/01/25 10:22:33;;;;;;;20.75;6.68;;;6.90;99.90;;;;;;5057768;28;20380;-82
2024/01/25 10:25:00;;;;;;;21.80;4.85;;;7.00;99.90;;;;;;5050021;28;20025;-84
2024/01/25 10:27:27;;;;;;;26.67;6.00;;;7.00;99.90;;;;;;5031459;28;20314;-79
2024/01/25 10:29:55;;;;;;;26.63;6.28;;;7.10;99.90;;;;;;5037165;28;20025;-91
2024/01/25 10:32:22;;;;;;;27.35;6.63;;;7.30;99.90;;;;;;5041965;28;20688;-86
2024/01/25 10:34:51;;;;;;;28.42;5.50;;;7.50;99.90;;;;;;5036431;28;20021;-93
2024/01/25 10:37:19;;;;;;;27.63;5.53;;;7.70;99.90;;;;;;5061142;28;20033;-93
2024/01/25 10:39:46;;;;;;;22.63;5.50;;;7.90;99.90;;;;;;5042174;28;20108;-84
2024/01/25 10:42:13;;;;;;;18.67;5.18;;;8.10;99.90;;;;;;5035028;28;20424;-88
2024/01/25 10:44:39;;;;;;;25.50;5.50;;;8.30;99.90;;;;;;5014171;28;20044;-84
2024/01/25 10:47:07;;;;;;;22.17;5.63;;;8.40;99.90;;;;;;5033384;28;20496;-80
2024/01/25 10:49:34;;;;;;;25.98;6.03;;;8.50;99.90;;;;;;5046614;28;20036;-89
2024/01/25 10:52:01;;;;;;;25.45;6.40;;;8.60;99.90;;;;;;5042718;28;20036;-80
2024/01/25 10:54:28;;;;;;;33.15;6.05;;;8.70;99.90;;;;;;5045441;28;20487;-90
2024/01/25 10:56:58;;;;;;;29.42;6.00;;;8.70;99.90;;;;;;5032480;28;20014;-84
2024/01/25 10:59:25;;;;;;;21.05;5.05;;;8.60;99.90;;;;;;5012306;28;20021;-84
2024/01/25 11:01:54;;;;;;;21.98;4.85;;;8.60;99.90;;;;;;5035255;28;20040;-81
2024/01/25 11:04:22;;;;;;;25.40;5.80;;;8.60;99.90;;;;;;5037318;28;20029;-85
2024/01/25 11:06:48;;;;;;;27.65;6.47;;;8.60;99.90;;;;;;5054627;28;20039;-77
2024/01/25 11:09:19;;;;;;;22.98;5.65;;;8.60;99.90;;;;;;5043792;28;20032;-83
2024/01/25 11:11:49;;;;;;;23.35;5.28;;;8.60;99.90;;;;;;5020091;28;20032;-77
2024/01/25 11:14:18;;;;;;;25.55;5.72;;;8.60;99.90;;;;;;5080135;28;20040;-87
2024/01/25 11:16:45;;;;;;;35.40;7.35;;;8.60;99.90;;;;;;5049674;28;20028;-93
2024/01/25 11:19:20;;;;;;;30.52;6.30;;;8.70;99.90;;;;;;5047021;28;20045;-81
2024/01/25 11:21:48;;;;;;;34.58;7.32;;;8.70;99.90;;;;;;5046701;28;20403;-78
2024/01/25 11:24:21;;;;;;;32.38;6.72;;;8.70;99.90;;;;;;5021071;28;20021;-79
2024/01/25 11:26:49;;;;;;;27.10;6.97;;;8.60;99.90;;;;;;5069262;28;20033;-80
2024/01/25 11:29:17;;;;;;;26.92;5.55;;;8.60;99.90;;;;;;5011014;28;20025;-81
2024/01/25 11:31:45;;;;;;;30.65;6.03;;;8.60;99.90;;;;;;5016426;28;20067;-78
2024/01/25 11:34:12;;;;;;;25.88;5.63;;;8.60;99.90;;;;;;5042904;28;20029;-80
2024/01/25 11:36:39;;;;;;;26.20;6.30;;;8.60;99.90;;;;;;5031945;28;20032;-83
2024/01/25 11:39:06;;;;;;;22.90;6.15;;;8.70;99.90;;;;;;5058472;28;20037;-79
2024/01/25 11:41:33;;;;;;;35.78;7.03;;;8.70;99.90;;;;;;5044021;28;20033;-95
2024/01/25 11:44:00;;;;;;;22.73;5.53;;;8.70;99.90;;;;;;5042318;28;20032;-92
2024/01/25 11:46:27;;;;;;;17.67;4.75;;;8.80;99.90;;;;;;5025561;28;20047;-84
2024/01/25 11:48:53;;;;;;;18.35;5.50;;;8.90;99.90;;;;;;5056459;28;20044;-79
2024/01/25 11:51:19;;;;;;;28.60;7.43;;;9.00;99.90;;;;;;5035104;28;20029;-83
2024/01/25 11:53:46;;;;;;;33.92;7.10;;;9.00;99.90;;;;;;5056110;28;20037;-96
2024/01/25 11:56:16;;;;;;;28.95;5.90;;;9.10;99.90;;;;;;5324663;22;20017;31
2024/01/25 11:58:45;;;;;;;36.95;7.13;;;9.20;99.90;;;;;;4993794;28;20047;-78
2024/01/25 12:01:12;;;;;;;32.75;6.72;;;9.20;99.90;;;;;;4951560;28;20031;-89
2024/01/25 12:03:40;;;;;;;31.08;6.72;;;9.20;99.90;;;;;;4958990;28;20051;-88
2024/01/25 12:06:09;;;;;;;30.25;7.25;;;9.20;99.90;;;;;;4944236;28;20039;-82
2024/01/25 12:08:35;;;;;;;22.38;5.90;;;9.30;99.90;;;;;;4960074;28;20035;-86
2024/01/25 12:11:04;;;;;;;26.30;8.15;;;9.30;99.90;;;;;;4956298;28;20035;-89
2024/01/25 12:13:35;;;;;;;27.45;9.48;;;9.40;99.90;;;;;;4955716;28;20402;-86
2024/01/25 12:16:03;;;;;;;30.67;9.60;;;9.50;99.90;;;;;;4972293;28;20046;-86
2024/01/25 12:18:31;;;;;;;30.75;10.00;;;9.50;99.90;;;;;;4953799;28;22055;-86
2024/01/25 12:21:01;;;;;;;29.15;9.45;;;9.50;99.90;;;;;;4960958;28;20049;-92
2024/01/25 12:23:35;;;;;;;22.42;7.10;;;9.60;99.90;;;;;;4957004;28;20497;-86
2024/01/25 12:26:03;;;;;;;24.08;6.53;;;9.50;99.90;;;;;;4959780;28;20398;-84
2024/01/25 12:28:31;;;;;;;28.23;7.63;;;9.50;99.90;;;;;;4966362;28;20042;-82
2024/01/25 12:30:58;;;;;;;22.48;6.22;;;9.40;99.90;;;;;;4946630;28;20054;-91
2024/01/25 12:33:24;;;;;;;29.52;6.88;;;9.30;99.90;;;;;;4961152;28;20039;-80
2024/01/25 12:35:51;;;;;;;23.52;6.72;;;9.30;99.90;;;;;;4974869;28;20043;-90
2024/01/25 12:38:17;;;;;;;22.02;5.90;;;9.20;99.90;;;;;;4954298;28;20051;-88
2024/01/25 12:40:46;;;;;;;29.10;6.88;;;9.10;99.90;;;;;;4953659;28;20034;-82
2024/01/25 12:43:12;;;;;;;24.05;6.28;;;9.10;99.90;;;;;;4966043;28;20066;-80
2024/01/25 12:45:39;;;;;;;31.55;12.20;;;9.00;99.90;;;;;;4951511;28;20027;-80